Terminal Aerodrome Forecast
Issued by NWS Newport/Morehead City, NC

Home | Current Version | Previous Version | Text Only | Print | Product List | Glossary On
Versions: 1 2 3 4 5 6 7 8 9 10 11 12 13 14 15 16 17 18 19 20 21
000
FTUS42 KMHX 241759
TAFEWN
TAF
KEWN 241759Z 2418/2518 10013KT 5SM SHRA BKN015 OVC025
     FM250200 09013G24KT 2SM +SHRA BKN007 OVC015
     FM250600 07010G19KT 5SM SHRA SCT025 BKN030
     FM251500 17006KT 5SM SHRA BKN025 BKN070=

USA.gov is the U.S. government's official web portal to all federal, state and local government web resources and services.